Time;durP1;ratioP1;P1;durP2;ratioP2;P2;SDS_P1;SDS_P2;PMS_P1;PMS_P2;Temp;Humidity;BMP_temperature;BMP_pressure;BME280_temperature;BME280_humidity;BME280_pressure;Samples;Min_cycle;Max_cycle;Signal;HPM_P1;HPM_P2
2023/06/09 00:01:14;;;;;;;3.67;3.03;;;17.80;22.90;;;;;;5108316;28;20499;-58
2023/06/09 00:03:40;;;;;;;4.57;3.10;;;17.70;22.80;;;;;;5087350;28;20432;-57
2023/06/09 00:06:08;;;;;;;3.78;2.60;;;17.70;22.70;;;;;;5105197;28;20376;-59
2023/06/09 00:08:37;;;;;;;5.10;2.90;;;17.70;22.70;;;;;;5086959;28;20028;-58
2023/06/09 00:11:03;;;;;;;4.03;2.72;;;17.70;22.60;;;;;;5108694;28;20027;-57
2023/06/09 00:13:28;;;;;;;6.10;3.17;;;17.60;22.90;;;;;;5087255;28;20032;-57
2023/06/09 00:15:53;;;;;;;3.92;2.97;;;17.50;22.90;;;;;;5108137;28;20039;-58
2023/06/09 00:18:19;;;;;;;4.10;2.55;;;17.50;22.60;;;;;;5097720;28;20096;-59
2023/06/09 00:20:45;;;;;;;4.00;2.80;;;17.40;22.60;;;;;;5089070;28;20400;-57
2023/06/09 00:23:13;;;;;;;5.28;2.75;;;17.40;22.50;;;;;;5106053;28;20023;-57
2023/06/09 00:25:38;;;;;;;4.43;2.83;;;17.40;22.50;;;;;;5088645;28;20266;-56
2023/06/09 00:28:04;;;;;;;2.90;2.55;;;17.30;22.70;;;;;;5105851;28;20544;-57
2023/06/09 00:30:29;;;;;;;3.55;2.47;;;17.30;22.90;;;;;;5088823;28;20117;-58
2023/06/09 00:32:55;;;;;;;4.40;2.47;;;17.20;23.00;;;;;;5105858;28;20495;-58
2023/06/09 00:35:20;;;;;;;3.78;2.85;;;17.10;23.40;;;;;;5110540;28;20043;-57
2023/06/09 00:37:48;;;;;;;3.28;2.63;;;17.00;23.40;;;;;;5096771;28;20511;-58
2023/06/09 00:40:13;;;;;;;4.35;2.72;;;16.90;23.70;;;;;;5112494;28;20502;-57
2023/06/09 00:42:39;;;;;;;3.05;2.75;;;16.90;23.60;;;;;;5095546;28;20028;-56
2023/06/09 00:45:05;;;;;;;3.78;2.60;;;16.80;23.70;;;;;;5112655;28;20030;-57
2023/06/09 00:47:31;;;;;;;5.38;2.90;;;16.70;23.80;;;;;;5094484;28;20058;-57
2023/06/09 00:49:57;;;;;;;4.65;3.15;;;16.70;23.90;;;;;;5112834;28;20052;-57
2023/06/09 00:52:22;;;;;;;3.85;2.78;;;16.70;23.70;;;;;;5093478;28;20111;-60
2023/06/09 00:54:49;;;;;;;4.05;2.90;;;16.60;23.80;;;;;;5111133;28;20032;-58
2023/06/09 00:57:15;;;;;;;4.63;2.88;;;16.60;23.50;;;;;;5091997;28;20024;-58
2023/06/09 00:59:40;;;;;;;3.33;2.63;;;16.60;23.40;;;;;;5112439;28;20039;-57
2023/06/09 01:02:07;;;;;;;4.03;2.85;;;16.60;23.40;;;;;;5090606;28;20070;-58
2023/06/09 01:04:34;;;;;;;5.20;2.88;;;16.50;23.30;;;;;;5111463;28;20478;-58
2023/06/09 01:07:20;;;;;;;3.45;2.70;;;16.50;23.50;;;;;;5089016;28;20025;-58
2023/06/09 01:09:57;;;;;;;4.32;2.63;;;16.40;23.60;;;;;;5091961;28;20393;-58
2023/06/09 01:12:46;;;;;;;4.63;2.45;;;16.40;23.70;;;;;;5082062;28;20020;-58
2023/06/09 01:15:22;;;;;;;5.07;2.33;;;16.20;23.90;;;;;;5111818;28;20027;-58
2023/06/09 01:17:52;;;;;;;4.32;2.90;;;16.20;24.10;;;;;;5099053;28;20034;-58
2023/06/09 01:20:45;;;;;;;5.50;3.30;;;16.20;24.40;;;;;;5071286;28;20028;-58
2023/06/09 01:23:46;;;;;;;3.25;2.47;;;16.10;24.80;;;;;;5095128;28;20156;-57
2023/06/09 01:26:14;;;;;;;6.57;2.92;;;16.00;25.30;;;;;;5071024;28;20496;-58
2023/06/09 01:28:40;;;;;;;3.35;2.65;;;16.00;25.30;;;;;;5102083;28;20067;-58
2023/06/09 01:31:08;;;;;;;5.22;3.03;;;15.90;25.30;;;;;;5091505;28;20020;-56
2023/06/09 01:33:35;;;;;;;5.30;2.70;;;15.90;25.80;;;;;;5092967;28;20032;-58
2023/06/09 01:36:00;;;;;;;4.93;2.65;;;15.80;25.80;;;;;;5110799;28;20035;-57
2023/06/09 01:38:26;;;;;;;3.38;2.72;;;15.70;25.90;;;;;;5088404;28;20671;-58
2023/06/09 01:40:52;;;;;;;3.70;2.53;;;15.70;26.00;;;;;;5109417;28;20067;-59
2023/06/09 01:43:18;;;;;;;4.50;2.95;;;15.60;26.30;;;;;;5089628;28;20063;-58
2023/06/09 01:45:43;;;;;;;4.15;2.78;;;15.60;27.00;;;;;;5110320;28;20032;-58
2023/06/09 01:48:27;;;;;;;5.78;2.90;;;15.60;26.80;;;;;;5087546;28;20081;-58
2023/06/09 01:50:58;;;;;;;3.28;2.55;;;15.50;27.50;;;;;;5070652;28;20033;-57
2023/06/09 01:53:31;;;;;;;3.92;2.88;;;15.50;27.70;;;;;;5083458;28;20487;-58
2023/06/09 01:56:09;;;;;;;3.50;2.78;;;15.40;27.90;;;;;;5070442;28;20094;-58
2023/06/09 01:58:43;;;;;;;6.35;3.35;;;15.30;28.30;;;;;;5083551;28;20042;-55
2023/06/09 02:01:10;;;;;;;3.42;2.72;;;15.30;28.60;;;;;;5070600;28;20028;-58
2023/06/09 02:03:40;;;;;;;4.35;3.22;;;15.20;28.80;;;;;;5091413;28;20032;-56
2023/06/09 02:06:05;;;;;;;6.05;2.60;;;15.20;29.00;;;;;;5104301;28;20395;-58
2023/06/09 02:08:32;;;;;;;3.97;2.60;;;15.10;29.40;;;;;;5088967;28;20024;-58
2023/06/09 02:10:57;;;;;;;3.40;2.55;;;15.10;29.70;;;;;;5110127;28;20039;-58
2023/06/09 02:13:23;;;;;;;3.63;2.85;;;15.00;29.70;;;;;;5088816;28;20024;-59
2023/06/09 02:15:49;;;;;;;4.40;2.88;;;15.00;30.30;;;;;;5108246;28;20040;-58
2023/06/09 02:18:17;;;;;;;4.65;3.25;;;14.90;30.00;;;;;;5088697;28;20080;-58
2023/06/09 02:20:43;;;;;;;4.90;2.85;;;14.90;30.00;;;;;;5110003;28;20024;-58
2023/06/09 02:23:10;;;;;;;3.90;2.95;;;14.80;30.10;;;;;;5088686;28;20542;-58
2023/06/09 02:25:36;;;;;;;3.42;2.88;;;14.80;30.70;;;;;;5110006;28;20076;-58
2023/06/09 02:28:05;;;;;;;4.13;3.10;;;14.70;30.70;;;;;;5093117;28;20035;-57
2023/06/09 02:30:32;;;;;;;6.70;3.08;;;14.70;30.80;;;;;;5110274;28;20020;-58
2023/06/09 02:33:00;;;;;;;4.55;2.75;;;14.70;31.40;;;;;;5099444;28;20035;-59
2023/06/09 02:35:27;;;;;;;3.95;2.97;;;14.60;32.10;;;;;;5089754;28;20403;-58
2023/06/09 02:37:53;;;;;;;4.25;2.80;;;14.50;32.00;;;;;;5107486;28;20065;-58
2023/06/09 02:40:19;;;;;;;4.85;3.00;;;14.50;32.30;;;;;;5090179;28;20090;-58
2023/06/09 02:42:45;;;;;;;6.38;3.28;;;14.50;32.60;;;;;;5107333;28;20402;-57
2023/06/09 02:45:12;;;;;;;4.63;3.03;;;14.50;33.20;;;;;;5090104;28;20036;-59
2023/06/09 02:47:37;;;;;;;6.13;3.20;;;14.40;33.20;;;;;;5107481;28;20042;-57
2023/06/09 02:50:03;;;;;;;5.10;3.08;;;14.40;34.00;;;;;;5090045;28;20031;-56
2023/06/09 02:52:28;;;;;;;3.85;2.92;;;14.30;34.00;;;;;;5105892;28;20051;-58
2023/06/09 02:54:54;;;;;;;4.20;2.85;;;14.30;34.00;;;;;;5109899;28;20077;-57
2023/06/09 02:57:20;;;;;;;4.18;2.97;;;14.30;34.10;;;;;;5093632;28;20395;-58
2023/06/09 02:59:46;;;;;;;4.80;3.47;;;14.30;34.40;;;;;;5109367;28;20032;-58
2023/06/09 03:02:13;;;;;;;6.80;3.00;;;14.30;35.50;;;;;;5092477;28;20028;-57
2023/06/09 03:04:40;;;;;;;4.80;3.38;;;14.20;36.00;;;;;;5103898;28;20047;-58
2023/06/09 03:07:09;;;;;;;7.00;3.38;;;14.20;35.60;;;;;;5091266;28;20307;-58
2023/06/09 03:09:35;;;;;;;6.78;3.13;;;14.20;35.80;;;;;;5109632;28;20757;-57
2023/06/09 03:12:00;;;;;;;4.47;3.30;;;14.30;36.20;;;;;;5091201;28;20115;-56
2023/06/09 03:14:26;;;;;;;3.63;2.97;;;14.20;36.40;;;;;;5109671;28;20489;-58
2023/06/09 03:16:52;;;;;;;4.28;3.40;;;14.30;37.00;;;;;;5089290;28;20434;-58
2023/06/09 03:19:18;;;;;;;5.05;2.92;;;14.30;37.10;;;;;;5109397;28;20024;-58
2023/06/09 03:21:43;;;;;;;4.75;3.30;;;14.30;37.30;;;;;;5088159;28;20051;-58
2023/06/09 03:24:09;;;;;;;5.40;3.00;;;14.40;37.70;;;;;;5109445;28;20102;-57
2023/06/09 03:26:35;;;;;;;3.65;2.78;;;14.40;38.10;;;;;;5089545;28;20028;-59
2023/06/09 03:29:00;;;;;;;5.00;3.33;;;14.40;38.40;;;;;;5106599;28;20071;-57
2023/06/09 03:31:26;;;;;;;4.15;3.03;;;14.50;38.30;;;;;;5089321;28;20110;-57
2023/06/09 03:33:51;;;;;;;4.60;2.92;;;14.60;38.10;;;;;;5088022;28;20062;-58
2023/06/09 03:36:16;;;;;;;4.68;3.45;;;14.70;37.60;;;;;;5108332;28;20058;-58
2023/06/09 03:38:42;;;;;;;5.55;3.15;;;15.00;37.10;;;;;;5087528;28;20036;-57
2023/06/09 03:41:07;;;;;;;5.45;3.25;;;15.40;36.10;;;;;;5108620;28;20521;-57
2023/06/09 03:43:33;;;;;;;4.65;3.25;;;15.90;35.50;;;;;;5087515;28;20043;-58
2023/06/09 03:45:58;;;;;;;3.65;2.58;;;16.40;33.60;;;;;;5108445;28;20121;-56
2023/06/09 03:48:25;;;;;;;4.43;2.70;;;16.90;32.20;;;;;;5087497;28;20454;-58
2023/06/09 03:50:50;;;;;;;4.95;2.78;;;17.30;30.40;;;;;;5108690;28;20264;-58
2023/06/09 03:53:16;;;;;;;3.90;2.78;;;17.80;29.10;;;;;;5087263;28;20035;-58
2023/06/09 03:55:41;;;;;;;5.45;2.72;;;18.30;28.10;;;;;;5108177;28;20043;-58
2023/06/09 03:58:10;;;;;;;3.97;2.97;;;18.70;27.00;;;;;;5087333;28;20028;-57
2023/06/09 04:00:35;;;;;;;4.00;2.63;;;19.10;26.40;;;;;;5108599;28;20023;-59
2023/06/09 04:03:01;;;;;;;4.25;2.83;;;19.60;26.10;;;;;;5087154;28;20103;-58
2023/06/09 04:05:27;;;;;;;3.80;2.92;;;20.00;23.70;;;;;;5095516;28;20130;-56
2023/06/09 04:07:52;;;;;;;3.28;2.90;;;20.40;23.30;;;;;;5106235;28;20067;-58
2023/06/09 04:10:18;;;;;;;4.05;2.83;;;20.80;21.30;;;;;;5090995;28;20395;-58
2023/06/09 04:12:43;;;;;;;3.95;2.50;;;21.30;21.30;;;;;;5110183;28;20027;-58
2023/06/09 04:15:09;;;;;;;2.92;2.20;;;21.80;20.30;;;;;;5092954;28;20042;-58
2023/06/09 04:17:36;;;;;;;4.10;2.90;;;22.20;19.20;;;;;;5110130;28;20031;-58
2023/06/09 04:20:04;;;;;;;3.45;2.72;;;22.60;18.40;;;;;;5092683;28;20399;-57
2023/06/09 04:22:30;;;;;;;2.88;2.65;;;23.10;17.40;;;;;;5110479;28;20032;-58
2023/06/09 04:24:56;;;;;;;3.90;2.80;;;23.40;16.90;;;;;;5112860;28;20049;-57
2023/06/09 04:27:23;;;;;;;4.80;2.85;;;23.70;16.00;;;;;;5096767;28;20039;-58
2023/06/09 04:29:49;;;;;;;3.83;2.40;;;24.20;15.80;;;;;;5112674;28;20495;-58
2023/06/09 04:32:16;;;;;;;2.90;2.60;;;24.60;15.00;;;;;;5095632;28;20445;-58
2023/06/09 04:34:45;;;;;;;3.63;2.33;;;25.00;13.70;;;;;;5112770;28;20148;-58
2023/06/09 04:37:12;;;;;;;4.85;2.97;;;25.40;12.70;;;;;;5094668;28;20055;-58
2023/06/09 04:39:41;;;;;;;3.13;2.40;;;25.70;12.50;;;;;;5112724;28;20020;-58
2023/06/09 04:42:11;;;;;;;4.65;2.33;;;26.10;12.30;;;;;;5094156;28;20022;-59
2023/06/09 04:44:37;;;;;;;4.13;2.28;;;26.50;12.10;;;;;;5112361;27;20441;-57
2023/06/09 04:47:02;;;;;;;3.05;2.30;;;26.90;11.00;;;;;;5093773;28;20032;-57
2023/06/09 04:49:30;;;;;;;2.83;2.35;;;27.20;10.60;;;;;;5112547;28;20011;-58
2023/06/09 04:51:59;;;;;;;2.35;2.13;;;27.50;9.60;;;;;;5092382;28;20038;-58
2023/06/09 04:54:25;;;;;;;3.60;2.55;;;27.80;9.20;;;;;;5112474;28;20388;-58
2023/06/09 04:56:57;;;;;;;3.78;2.33;;;28.20;8.40;;;;;;5091657;28;20039;-58
2023/06/09 04:59:23;;;;;;;3.45;2.53;;;28.50;7.50;;;;;;5112200;28;20085;-58
2023/06/09 05:01:51;;;;;;;2.97;2.60;;;28.90;7.00;;;;;;5091434;28;20036;-58
2023/06/09 05:04:17;;;;;;;4.28;2.40;;;29.10;5.80;;;;;;5112077;28;20041;-58
2023/06/09 05:06:42;;;;;;;2.67;2.45;;;29.30;4.00;;;;;;5088068;28;20032;-58
2023/06/09 05:09:08;;;;;;;2.80;2.30;;;29.30;3.00;;;;;;5112051;28;20024;-58
2023/06/09 05:11:34;;;;;;;4.47;2.70;;;29.50;1.00;;;;;;5092120;28;20032;-60
2023/06/09 05:14:00;;;;;;;2.65;2.20;;;29.00;1.60;;;;;;5109411;28;20034;-58
2023/06/09 05:16:27;;;;;;;2.92;2.42;;;29.30;1.30;;;;;;5090083;28;20126;-59
2023/06/09 05:18:53;;;;;;;5.35;2.35;;;29.10;1.00;;;;;;5090440;28;20024;-59
2023/06/09 05:21:18;;;;;;;5.75;2.20;;;29.40;1.00;;;;;;5109787;28;20035;-58
2023/06/09 05:23:44;;;;;;;4.53;2.30;;;29.20;1.00;;;;;;5089921;28;20035;-58
2023/06/09 05:26:10;;;;;;;5.70;2.13;;;29.40;1.00;;;;;;5110831;28;20024;-58
2023/06/09 05:28:36;;;;;;;3.85;2.28;;;28.80;1.00;;;;;;5097792;28;20476;-59
2023/06/09 05:31:01;;;;;;;3.85;2.13;;;28.90;1.00;;;;;;5091344;28;20032;-58
2023/06/09 05:33:27;;;;;;;4.18;2.50;;;29.10;1.00;;;;;;5093610;28;20103;-54
2023/06/09 05:35:52;;;;;;;2.35;1.90;;;28.90;1.00;;;;;;5109432;28;20491;-58
2023/06/09 05:38:19;;;;;;;2.70;2.00;;;29.00;1.00;;;;;;5089687;28;20380;-58
2023/06/09 05:40:45;;;;;;;3.53;1.80;;;29.10;1.00;;;;;;5110724;28;20452;-58
2023/06/09 05:43:10;;;;;;;1.95;1.80;;;29.80;1.00;;;;;;5089590;28;20111;-58
2023/06/09 05:45:36;;;;;;;2.40;2.20;;;30.60;1.00;;;;;;5110384;28;20020;-58
2023/06/09 05:48:01;;;;;;;2.08;1.80;;;30.10;1.00;;;;;;5089233;28;20028;-58
2023/06/09 05:50:27;;;;;;;3.75;2.00;;;30.60;1.00;;;;;;5110260;28;20028;-58
2023/06/09 05:52:52;;;;;;;6.30;1.80;;;31.30;1.00;;;;;;5098223;28;20052;-59
2023/06/09 05:55:18;;;;;;;3.38;1.92;;;31.90;1.00;;;;;;5091088;28;20039;-59
2023/06/09 05:57:44;;;;;;;2.83;1.90;;;32.40;1.00;;;;;;5108151;28;20038;-59
2023/06/09 06:00:10;;;;;;;2.53;2.05;;;31.80;1.00;;;;;;5090948;28;20510;-58
2023/06/09 06:02:38;;;;;;;4.53;2.17;;;31.80;1.00;;;;;;5108071;28;20028;-59
2023/06/09 06:05:05;;;;;;;3.38;1.85;;;32.60;1.00;;;;;;5090938;28;20026;-58
2023/06/09 06:07:31;;;;;;;3.95;1.90;;;33.40;1.00;;;;;;5108864;28;20046;-59
2023/06/09 06:09:56;;;;;;;3.88;2.40;;;33.00;1.00;;;;;;5110743;28;20508;-59
2023/06/09 06:12:21;;;;;;;2.92;2.00;;;32.50;1.00;;;;;;5094763;28;20023;-58
2023/06/09 06:14:47;;;;;;;2.70;2.20;;;33.20;1.00;;;;;;5110533;28;20540;-59
2023/06/09 06:17:12;;;;;;;1.73;1.58;;;33.60;1.00;;;;;;5093424;28;20130;-59
2023/06/09 06:19:38;;;;;;;2.53;2.33;;;33.00;1.00;;;;;;5110606;28;20421;-59
2023/06/09 06:22:04;;;;;;;2.80;2.10;;;33.00;1.00;;;;;;5092236;28;20024;-59
2023/06/09 06:24:29;;;;;;;4.45;2.47;;;33.10;1.00;;;;;;5110538;28;20032;-59
2023/06/09 06:26:55;;;;;;;4.30;2.45;;;32.50;1.00;;;;;;5090911;28;20032;-59
2023/06/09 06:29:20;;;;;;;2.42;2.03;;;31.80;1.00;;;;;;5109963;28;20545;-59
2023/06/09 06:31:48;;;;;;;3.25;2.20;;;32.70;1.00;;;;;;5089276;28;20024;-59
2023/06/09 06:34:14;;;;;;;3.88;2.33;;;33.00;1.00;;;;;;5110052;28;20027;-59
2023/06/09 06:36:39;;;;;;;4.15;2.13;;;33.60;1.00;;;;;;5088308;28;20058;-57
2023/06/09 06:39:06;;;;;;;2.28;2.05;;;34.10;1.00;;;;;;5110311;28;20521;-59
2023/06/09 06:41:33;;;;;;;3.00;1.83;;;34.80;1.00;;;;;;5089780;28;20511;-59
2023/06/09 06:43:58;;;;;;;2.03;1.85;;;34.80;1.00;;;;;;5087770;28;20035;-59
2023/06/09 06:46:24;;;;;;;3.00;2.20;;;35.30;1.00;;;;;;5109353;28;20463;-59
2023/06/09 06:48:50;;;;;;;4.13;2.33;;;34.80;1.00;;;;;;5088332;28;20032;-58
2023/06/09 06:51:15;;;;;;;3.53;2.28;;;34.20;1.00;;;;;;5109398;28;20051;-59
2023/06/09 06:53:41;;;;;;;3.00;2.20;;;34.30;1.00;;;;;;5088554;28;20066;-59
2023/06/09 06:56:06;;;;;;;2.33;2.10;;;34.10;1.00;;;;;;5109177;28;20131;-59
2023/06/09 06:58:32;;;;;;;2.35;2.08;;;34.60;1.00;;;;;;5088137;28;20032;-59
2023/06/09 07:00:57;;;;;;;2.90;2.30;;;34.80;1.00;;;;;;5108946;28;20028;-59
2023/06/09 07:03:26;;;;;;;2.15;1.90;;;34.20;1.00;;;;;;5086579;28;20024;-59
2023/06/09 07:05:52;;;;;;;4.40;1.90;;;34.70;1.00;;;;;;5106162;28;20059;-59
2023/06/09 07:08:18;;;;;;;4.25;2.30;;;35.20;1.00;;;;;;5087835;28;20024;-59
2023/06/09 07:10:43;;;;;;;2.80;2.08;;;34.90;1.00;;;;;;5109049;28;20499;-59
2023/06/09 07:13:09;;;;;;;2.50;2.30;;;35.40;1.00;;;;;;5087850;28;20039;-59
2023/06/09 07:15:36;;;;;;;4.05;2.78;;;34.90;1.00;;;;;;5107527;28;20027;-59
2023/06/09 07:18:03;;;;;;;3.90;2.55;;;34.00;1.00;;;;;;5086181;28;20484;-59
2023/06/09 07:20:28;;;;;;;4.80;2.72;;;33.50;1.00;;;;;;5108816;28;20019;-59
2023/06/09 07:22:54;;;;;;;2.42;2.22;;;33.70;1.00;;;;;;5098353;28;20054;-59
2023/06/09 07:25:20;;;;;;;3.05;2.22;;;34.50;1.00;;;;;;5089361;28;20051;-59
2023/06/09 07:27:45;;;;;;;2.38;2.15;;;35.20;1.00;;;;;;5106329;28;20548;-59
2023/06/09 07:30:11;;;;;;;2.53;2.30;;;35.90;1.00;;;;;;5109507;28;20024;-59
2023/06/09 07:32:39;;;;;;;5.50;2.33;;;36.00;1.00;;;;;;5095633;28;20073;-59
2023/06/09 07:35:04;;;;;;;2.63;2.40;;;35.70;1.00;;;;;;5088918;28;20027;-58
2023/06/09 07:37:31;;;;;;;2.95;2.15;;;36.20;1.00;;;;;;5106431;28;20028;-59
2023/06/09 07:39:57;;;;;;;2.22;2.03;;;36.30;1.00;;;;;;5109428;28;20100;-59
2023/06/09 07:42:22;;;;;;;2.92;2.63;;;36.50;1.00;;;;;;5093230;28;20088;-59
2023/06/09 07:44:47;;;;;;;3.72;2.47;;;36.40;1.00;;;;;;5108601;28;20175;-59
2023/06/09 07:47:13;;;;;;;3.05;2.75;;;36.00;1.00;;;;;;5091974;28;20023;-60
2023/06/09 07:49:38;;;;;;;6.70;2.67;;;36.10;1.00;;;;;;5109000;28;20066;-60
2023/06/09 07:52:04;;;;;;;6.55;2.88;;;35.00;1.00;;;;;;5090686;28;20023;-59
2023/06/09 07:54:30;;;;;;;3.22;2.40;;;35.60;1.00;;;;;;5109042;28;20019;-59
2023/06/09 07:56:55;;;;;;;2.38;2.17;;;35.30;1.00;;;;;;5089699;28;20089;-59
2023/06/09 07:59:21;;;;;;;3.00;2.70;;;36.00;1.00;;;;;;5109196;28;20070;-59
2023/06/09 08:01:47;;;;;;;3.08;2.72;;;35.20;1.00;;;;;;5088358;28;20085;-59
2023/06/09 08:04:13;;;;;;;3.67;2.60;;;35.70;1.00;;;;;;5108856;28;20574;-59
2023/06/09 08:06:39;;;;;;;2.95;2.53;;;36.00;1.00;;;;;;5084888;28;20028;-59
2023/06/09 08:09:05;;;;;;;3.67;3.03;;;36.70;1.00;;;;;;5088660;28;20016;-59
2023/06/09 08:11:30;;;;;;;5.57;3.30;;;35.90;1.00;;;;;;5106636;28;20084;-59
2023/06/09 08:13:55;;;;;;;3.33;2.90;;;35.50;1.00;;;;;;5087241;28;20024;-59
2023/06/09 08:16:21;;;;;;;3.92;3.00;;;35.40;1.00;;;;;;5107786;28;20032;-59
2023/06/09 08:18:46;;;;;;;4.32;3.03;;;34.60;1.00;;;;;;5087146;28;20039;-60
2023/06/09 08:21:12;;;;;;;3.92;2.47;;;35.30;1.00;;;;;;5106444;28;20028;-59
2023/06/09 08:23:42;;;;;;;3.45;2.78;;;35.40;1.00;;;;;;5086907;28;20092;-58
2023/06/09 08:26:07;;;;;;;4.00;2.88;;;34.80;1.00;;;;;;5083683;28;20036;-58
2023/06/09 08:28:33;;;;;;;2.90;2.60;;;34.40;1.00;;;;;;5098310;28;20632;-58
2023/06/09 08:30:58;;;;;;;3.35;2.80;;;34.40;1.00;;;;;;5088648;28;20036;-59
2023/06/09 08:33:28;;;;;;;4.75;3.08;;;34.30;1.00;;;;;;5091199;28;20080;-58
2023/06/09 08:35:53;;;;;;;4.28;3.28;;;33.30;1.00;;;;;;5108177;28;20042;-59
2023/06/09 08:38:18;;;;;;;5.22;2.97;;;33.00;1.00;;;;;;5086830;28;20036;-59
2023/06/09 08:40:46;;;;;;;3.30;2.95;;;32.80;1.00;;;;;;5106342;28;20034;-59
2023/06/09 08:43:12;;;;;;;4.30;3.20;;;32.70;1.00;;;;;;5086318;28;20040;-58
2023/06/09 08:45:41;;;;;;;3.35;3.05;;;32.40;1.00;;;;;;5107620;28;20034;-59
2023/06/09 08:48:09;;;;;;;3.15;2.70;;;31.90;1.00;;;;;;5086183;28;20020;-59
2023/06/09 08:50:41;;;;;;;3.50;3.10;;;32.10;1.00;;;;;;5107840;28;20085;-59
2023/06/09 08:53:07;;;;;;;3.10;2.80;;;32.10;1.00;;;;;;5078334;28;20457;-58
2023/06/09 08:55:33;;;;;;;4.03;2.80;;;32.00;1.00;;;;;;5108528;28;20043;-59
2023/06/09 08:57:59;;;;;;;3.33;2.65;;;31.90;1.00;;;;;;5090593;28;20407;-59
2023/06/09 09:00:25;;;;;;;4.13;3.25;;;31.60;1.00;;;;;;5111335;28;20024;-59
2023/06/09 09:02:51;;;;;;;3.10;2.80;;;31.20;1.00;;;;;;5100334;28;20037;-59
2023/06/09 09:05:16;;;;;;;6.28;2.90;;;31.10;1.00;;;;;;5094131;28;20030;-59
2023/06/09 09:07:44;;;;;;;3.10;2.85;;;30.60;1.00;;;;;;5109865;28;20046;-59
2023/06/09 09:10:10;;;;;;;3.50;3.20;;;30.70;1.00;;;;;;5091579;28;20016;-59
2023/06/09 09:12:46;;;;;;;3.88;3.40;;;30.70;1.00;;;;;;5109382;28;20419;-60
2023/06/09 09:15:11;;;;;;;3.00;2.63;;;30.60;1.00;;;;;;5091599;28;20051;-60
2023/06/09 09:17:40;;;;;;;3.05;2.75;;;30.50;1.00;;;;;;5109084;28;20067;-59
2023/06/09 09:20:07;;;;;;;3.33;2.65;;;30.70;1.00;;;;;;5091475;28;20127;-59
2023/06/09 09:22:47;;;;;;;2.95;2.65;;;30.50;1.00;;;;;;5107766;28;20055;-60
2023/06/09 09:25:23;;;;;;;4.30;3.13;;;30.50;1.00;;;;;;5074503;28;20047;-58
2023/06/09 09:28:02;;;;;;;2.90;2.60;;;30.40;1.00;;;;;;5096196;28;20531;-58
2023/06/09 09:30:50;;;;;;;3.28;2.83;;;30.60;1.00;;;;;;5089691;27;20096;-59
2023/06/09 09:33:19;;;;;;;4.68;3.10;;;30.70;1.00;;;;;;5070974;28;20496;-59
2023/06/09 09:35:50;;;;;;;3.47;2.78;;;30.80;1.00;;;;;;5086551;28;20090;-58
2023/06/09 09:38:21;;;;;;;2.85;2.40;;;30.70;1.00;;;;;;5091542;28;20035;-59
2023/06/09 09:40:50;;;;;;;4.43;3.15;;;30.80;1.00;;;;;;5090100;28;20077;-59
2023/06/09 09:43:16;;;;;;;4.25;3.10;;;30.30;1.00;;;;;;5109797;28;20051;-59
2023/06/09 09:45:43;;;;;;;3.10;2.72;;;30.30;1.00;;;;;;5088497;28;20056;-59
2023/06/09 09:48:11;;;;;;;3.75;3.00;;;30.40;1.00;;;;;;5107963;28;20035;-59
2023/06/09 09:50:38;;;;;;;2.83;2.63;;;30.70;1.00;;;;;;5090955;28;20092;-59
2023/06/09 09:53:05;;;;;;;3.40;2.95;;;31.10;1.00;;;;;;5109735;28;20098;-59
2023/06/09 09:55:37;;;;;;;5.53;3.13;;;30.60;1.00;;;;;;5090941;28;20563;-60
2023/06/09 09:58:05;;;;;;;6.38;3.30;;;30.60;1.00;;;;;;5107844;28;20422;-57
2023/06/09 10:00:35;;;;;;;5.10;2.80;;;30.30;1.00;;;;;;5105237;28;20460;-59
2023/06/09 10:03:05;;;;;;;3.97;3.38;;;30.30;1.00;;;;;;5109399;28;20027;-58
2023/06/09 10:05:33;;;;;;;5.80;3.25;;;30.40;1.00;;;;;;5080009;28;20028;-58
2023/06/09 10:08:02;;;;;;;3.72;3.42;;;30.20;1.00;;;;;;5088782;28;20024;-59
2023/06/09 10:10:28;;;;;;;5.57;3.22;;;30.00;1.00;;;;;;5107132;28;20043;-59
2023/06/09 10:12:55;;;;;;;3.63;3.05;;;29.90;1.00;;;;;;5109047;28;20487;-59
2023/06/09 10:15:21;;;;;;;4.40;3.30;;;29.90;1.00;;;;;;5089311;28;22299;-59
2023/06/09 10:17:48;;;;;;;5.88;3.22;;;29.60;1.00;;;;;;5109322;28;20084;-59
2023/06/09 10:20:14;;;;;;;4.47;2.90;;;29.60;1.00;;;;;;5088185;28;20368;-59
2023/06/09 10:22:41;;;;;;;4.43;3.30;;;29.60;1.00;;;;;;5109110;28;20574;-59
2023/06/09 10:25:08;;;;;;;3.83;3.45;;;29.40;1.00;;;;;;5087363;28;20036;-56
2023/06/09 10:27:34;;;;;;;4.50;3.65;;;29.40;1.00;;;;;;5108742;27;20023;-58
2023/06/09 10:30:00;;;;;;;3.60;3.17;;;29.00;1.00;;;;;;5090030;28;20031;-56
2023/06/09 10:32:28;;;;;;;6.90;3.17;;;29.00;1.00;;;;;;5108259;28;20034;-58
2023/06/09 10:34:57;;;;;;;6.65;3.40;;;29.00;1.00;;;;;;5089787;28;20098;-58
2023/06/09 10:37:34;;;;;;;5.35;3.65;;;29.00;1.00;;;;;;5095237;28;20039;-58
2023/06/09 10:40:16;;;;;;;6.22;3.40;;;28.90;1.00;;;;;;5110392;28;20012;-55
2023/06/09 10:43:07;;;;;;;4.50;3.33;;;28.60;1.00;;;;;;5110171;28;20031;-58
2023/06/09 10:45:50;;;;;;;4.22;3.30;;;28.70;1.00;;;;;;5074491;28;20040;-59
2023/06/09 10:48:41;;;;;;;4.78;3.65;;;28.70;1.00;;;;;;5109654;28;20027;-57
2023/06/09 10:51:27;;;;;;;5.00;3.67;;;28.80;1.00;;;;;;5096965;28;20122;-57
2023/06/09 10:54:14;;;;;;;5.55;3.42;;;29.00;1.00;;;;;;5089686;28;20115;-59
2023/06/09 10:56:46;;;;;;;4.22;3.50;;;28.70;1.00;;;;;;5076307;28;20496;-56
2023/06/09 10:59:24;;;;;;;5.32;3.90;;;28.60;1.00;;;;;;5069458;28;20357;-57
2023/06/09 11:02:11;;;;;;;4.70;3.33;;;28.60;1.00;;;;;;5091917;28;20039;-59
2023/06/09 11:04:46;;;;;;;3.65;3.17;;;28.70;1.00;;;;;;5070587;28;20020;-56
2023/06/09 11:07:21;;;;;;;5.47;3.83;;;28.90;1.00;;;;;;5069343;28;20077;-57
2023/06/09 11:09:47;;;;;;;;;;;29.00;1.00;;;;;;5090988;28;20107;-58
2023/06/09 11:12:27;;;;;;;;;;;29.10;1.00;;;;;;5109680;28;20438;-59
2023/06/09 11:14:57;;;;;;;3.63;3.20;;;29.30;1.00;;;;;;5084721;28;20485;-58
2023/06/09 11:17:44;;;;;;;5.53;3.38;;;29.40;1.00;;;;;;5069259;28;20037;-56
2023/06/09 11:20:14;;;;;;;6.03;3.70;;;29.30;1.00;;;;;;5086375;28;20163;-56
2023/06/09 11:22:49;;;;;;;4.88;3.40;;;29.20;1.00;;;;;;5069525;28;20055;-57
2023/06/09 11:25:15;;;;;;;4.35;3.42;;;29.20;1.00;;;;;;5067914;28;20025;-56
2023/06/09 11:27:41;;;;;;;4.53;3.92;;;29.00;1.00;;;;;;5106131;28;20073;-57
2023/06/09 11:30:18;;;;;;;4.10;3.47;;;28.90;1.00;;;;;;5087451;28;20051;-58
2023/06/09 11:32:50;;;;;;;5.85;3.70;;;28.70;1.00;;;;;;5069062;28;20051;-57
2023/06/09 11:35:28;;;;;;;5.85;4.32;;;28.70;1.00;;;;;;5070559;28;20029;-58
2023/06/09 11:38:05;;;;;;;5.05;4.55;;;28.60;1.00;;;;;;5074748;28;20020;-54
2023/06/09 11:40:33;;;;;;;6.75;4.22;;;28.40;1.00;;;;;;5066735;28;20540;-57
2023/06/09 11:43:01;;;;;;;4.32;3.53;;;28.30;1.00;;;;;;5086367;28;20058;-58
2023/06/09 11:45:29;;;;;;;5.63;3.85;;;28.30;1.00;;;;;;5065631;28;20040;-57
2023/06/09 11:47:57;;;;;;;6.40;4.47;;;28.30;1.00;;;;;;5105968;28;20047;-57
2023/06/09 11:50:24;;;;;;;5.65;4.05;;;28.20;1.00;;;;;;5084872;28;20032;-58
2023/06/09 11:53:08;;;;;;;5.00;3.92;;;28.20;1.00;;;;;;5106425;28;20411;-58
2023/06/09 11:55:34;;;;;;;5.97;4.05;;;28.10;1.00;;;;;;5069535;28;20040;-58
2023/06/09 11:58:01;;;;;;;5.65;4.03;;;28.10;1.00;;;;;;5093099;28;20034;-58
2023/06/09 12:00:28;;;;;;;5.93;3.70;;;28.10;1.00;;;;;;5084570;28;20039;-57
2023/06/09 12:02:58;;;;;;;4.88;3.42;;;28.10;1.00;;;;;;5089173;28;20034;-57
2023/06/09 12:05:26;;;;;;;5.43;4.25;;;28.20;1.00;;;;;;5089906;28;20030;-57
2023/06/09 12:07:53;;;;;;;4.32;3.92;;;28.20;1.00;;;;;;5085868;28;20035;-54
2023/06/09 12:10:21;;;;;;;4.93;4.07;;;28.10;1.00;;;;;;5107407;28;20028;-57
2023/06/09 12:12:48;;;;;;;4.25;3.17;;;28.00;1.00;;;;;;5085791;28;20554;-57
2023/06/09 12:15:16;;;;;;;4.20;3.70;;;28.00;1.00;;;;;;5107025;28;20106;-57
2023/06/09 12:17:42;;;;;;;3.75;3.20;;;28.00;1.00;;;;;;5085960;28;20032;-57
2023/06/09 12:20:29;;;;;;;5.63;4.00;;;28.10;1.00;;;;;;5108056;28;20035;-56
2023/06/09 12:22:58;;;;;;;5.70;3.97;;;28.10;1.00;;;;;;5082321;28;20119;-57
2023/06/09 12:25:28;;;;;;;5.75;4.18;;;28.10;1.00;;;;;;5108588;28;20491;-58
2023/06/09 12:28:12;;;;;;;4.38;3.90;;;28.10;1.00;;;;;;5090559;28;20126;-59
2023/06/09 12:30:47;;;;;;;7.43;4.53;;;28.00;1.00;;;;;;5109794;28;20072;-58
2023/06/09 12:33:15;;;;;;;4.55;3.90;;;28.00;1.00;;;;;;5090754;28;20046;-58
2023/06/09 12:35:45;;;;;;;4.10;3.70;;;27.80;1.00;;;;;;5112209;28;20053;-58
2023/06/09 12:38:16;;;;;;;4.93;4.28;;;27.80;1.00;;;;;;5088029;28;20032;-56
2023/06/09 12:40:43;;;;;;;6.35;3.88;;;27.90;1.00;;;;;;5072305;28;20052;-58
2023/06/09 12:43:09;;;;;;;5.45;4.30;;;27.90;1.00;;;;;;5099514;28;20662;-57
2023/06/09 12:45:36;;;;;;;7.55;3.90;;;27.90;1.00;;;;;;5092805;28;20062;-57
2023/06/09 12:48:06;;;;;;;6.90;4.10;;;27.90;1.00;;;;;;5110381;28;20119;-58
2023/06/09 12:50:31;;;;;;;5.38;4.05;;;27.90;1.00;;;;;;5087076;28;20388;-59
2023/06/09 12:52:57;;;;;;;8.00;4.22;;;28.00;1.00;;;;;;5092143;28;20023;-58
2023/06/09 12:55:23;;;;;;;7.95;4.82;;;28.00;1.00;;;;;;5100230;28;20027;-58
2023/06/09 12:57:48;;;;;;;4.95;3.63;;;28.00;1.00;;;;;;5088716;28;20016;-59